Time;durP1;ratioP1;P1;durP2;ratioP2;P2;SDS_P1;SDS_P2;PMS_P1;PMS_P2;Temp;Humidity;BMP_temperature;BMP_pressure;BME280_temperature;BME280_humidity;BME280_pressure;Samples;Min_cycle;Max_cycle;Signal;HPM_P1;HPM_P2
2023/08/28 00:02:12;;;;;;;;;;;14.70;99.90;;;;;;20998116;28;19924;-75
2023/08/28 00:12:13;;;;;;;;;;;14.60;99.90;;;;;;21003161;28;19956;-75
2023/08/28 00:22:13;;;;;;;;;;;14.70;99.90;;;;;;20998839;28;19974;-75
2023/08/28 00:32:14;;;;;;;;;;;14.70;99.90;;;;;;20999444;28;19912;-75
2023/08/28 00:42:14;;;;;;;;;;;14.60;99.90;;;;;;20968880;28;20419;-75
2023/08/28 00:52:15;;;;;;;;;;;14.60;99.90;;;;;;20971187;28;19912;-75
2023/08/28 01:02:16;;;;;;;;;;;14.60;99.90;;;;;;21025560;28;19954;-75
2023/08/28 01:12:32;;;;;;;;;;;14.60;99.90;;;;;;21013547;28;20367;-75
2023/08/28 01:22:42;;;;;;;;;;;14.50;99.90;;;;;;20992947;28;19943;-75
2023/08/28 01:32:44;;;;;;;;;;;14.50;99.90;;;;;;20993841;28;19916;-75
2023/08/28 01:42:46;;;;;;;;;;;14.40;99.90;;;;;;20993184;28;20378;-75
2023/08/28 01:52:47;;;;;;;;;;;14.50;99.90;;;;;;20973586;28;19913;-75
2023/08/28 02:02:47;;;;;;;;;;;14.50;99.90;;;;;;20999070;28;19939;-75
2023/08/28 02:12:48;;;;;;;;;;;14.50;99.90;;;;;;20973265;28;19927;-75
2023/08/28 02:22:49;;;;;;;;;;;14.50;99.90;;;;;;20961345;28;19917;-75
2023/08/28 02:32:50;;;;;;;;;;;14.60;99.90;;;;;;20970185;28;19917;-75
2023/08/28 02:42:50;;;;;;;;;;;14.60;99.90;;;;;;20969131;28;19920;-75
2023/08/28 02:52:51;;;;;;;;;;;14.50;99.90;;;;;;20971291;28;19912;-75
2023/08/28 03:02:51;;;;;;;;;;;14.50;99.90;;;;;;20986848;28;19923;-75
2023/08/28 03:12:52;;;;;;;;;;;14.40;99.90;;;;;;20969595;28;20386;-74
2023/08/28 03:22:55;;;;;;;;;;;14.30;99.90;;;;;;20950675;28;19917;-74
2023/08/28 03:32:55;;;;;;;;;;;14.20;99.90;;;;;;20967459;28;19913;-75
2023/08/28 03:42:56;;;;;;;;;;;14.20;99.90;;;;;;20982588;28;19982;-74
2023/08/28 03:52:57;;;;;;;;;;;14.10;99.90;;;;;;20965516;28;19921;-74
2023/08/28 04:02:58;;;;;;;;;;;13.90;99.90;;;;;;20997496;28;19924;-74
2023/08/28 04:12:59;;;;;;;;;;;14.00;99.90;;;;;;21003543;28;19912;-74
2023/08/28 04:23:00;;;;;;;;;;;13.90;99.90;;;;;;21061175;28;20415;-75
2023/08/28 04:33:01;;;;;;;;;;;14.10;99.90;;;;;;21065936;28;20479;-74
2023/08/28 04:43:01;;;;;;;;;;;14.10;99.90;;;;;;21010146;28;19960;-74
2023/08/28 04:53:02;;;;;;;;;;;13.90;99.90;;;;;;21000508;28;19916;-74
2023/08/28 05:03:03;;;;;;;;;;;13.80;99.90;;;;;;20996580;28;20279;-74
2023/08/28 05:13:06;;;;;;;;;;;13.90;99.90;;;;;;20971550;28;19958;-74
2023/08/28 05:23:08;;;;;;;;;;;13.90;99.90;;;;;;20970098;28;19916;-73
2023/08/28 05:33:08;;;;;;;;;;;13.80;99.90;;;;;;20989743;28;19956;-73
2023/08/28 05:43:09;;;;;;;;;;;13.70;99.90;;;;;;20989291;28;19969;-74
2023/08/28 05:53:10;;;;;;;;;;;13.70;99.90;;;;;;20971517;28;20391;-74
2023/08/28 06:03:11;;;;;;;;;;;13.80;99.90;;;;;;20974237;28;19927;-74
2023/08/28 06:13:12;;;;;;;;;;;13.90;99.90;;;;;;20970559;28;19916;-74
2023/08/28 06:23:12;;;;;;;;;;;14.10;99.90;;;;;;20976371;28;19939;-74
2023/08/28 06:33:13;;;;;;;;;;;14.20;99.90;;;;;;20989656;28;20264;-73
2023/08/28 06:43:14;;;;;;;;;;;14.30;99.90;;;;;;20963595;28;20020;-74
2023/08/28 06:53:14;;;;;;;;;;;14.30;99.90;;;;;;20979456;28;20008;-74
2023/08/28 07:03:15;;;;;;;;;;;14.50;99.90;;;;;;20989315;28;20331;-74
2023/08/28 07:13:16;;;;;;;;;;;14.50;99.90;;;;;;20989109;28;20007;-74
2023/08/28 07:23:17;;;;;;;;;;;14.60;99.90;;;;;;20988680;28;19917;-74
2023/08/28 07:33:18;;;;;;;;;;;14.60;99.90;;;;;;20989779;28;20429;-74
2023/08/28 07:43:18;;;;;;;;;;;14.50;99.90;;;;;;21005494;28;19985;-74
2023/08/28 07:53:20;;;;;;;;;;;14.40;99.90;;;;;;21002733;28;19913;-74
2023/08/28 08:03:21;;;;;;;;;;;14.30;99.90;;;;;;21002681;28;19924;-74
2023/08/28 08:13:21;;;;;;;;;;;14.50;99.90;;;;;;21001468;28;19913;-74
2023/08/28 08:23:22;;;;;;;;;;;14.90;99.90;;;;;;21000651;28;19922;-74
2023/08/28 08:33:23;;;;;;;;;;;15.10;99.90;;;;;;21003840;28;20003;-74
2023/08/28 08:43:25;;;;;;;;;;;14.90;99.90;;;;;;20998618;28;19973;-74
2023/08/28 08:53:29;;;;;;;;;;;15.00;99.90;;;;;;20981061;28;19912;-74
2023/08/28 09:03:30;;;;;;;;;;;15.00;99.90;;;;;;20997769;28;19917;-74
2023/08/28 09:13:31;;;;;;;;;;;14.90;99.90;;;;;;20980977;28;20299;-74
2023/08/28 09:23:32;;;;;;;;;;;15.00;99.90;;;;;;20999713;28;19969;-74
2023/08/28 09:33:46;;;;;;;;;;;15.00;99.90;;;;;;21001442;28;19956;-74
2023/08/28 09:43:49;;;;;;;;;;;15.40;99.90;;;;;;20994129;28;19923;-74
2023/08/28 09:53:59;;;;;;;;;;;15.70;99.90;;;;;;20992548;28;19916;-74
2023/08/28 10:04:01;;;;;;;;;;;16.00;99.90;;;;;;20985286;28;19919;-74
2023/08/28 10:14:05;;;;;;;;;;;16.00;99.90;;;;;;20991163;28;19952;-74
2023/08/28 10:24:06;;;;;;;;;;;16.50;99.90;;;;;;20991151;28;20024;-74
2023/08/28 10:34:09;;;;;;;;;;;16.30;99.90;;;;;;20991931;28;20391;-74
2023/08/28 10:44:10;;;;;;;;;;;16.00;99.90;;;;;;20990776;28;19948;-75
2023/08/28 10:54:11;;;;;;;;;;;16.30;99.90;;;;;;20990402;28;19970;-74
2023/08/28 11:04:17;;;;;;;;;;;16.30;99.90;;;;;;21000881;28;19913;-74
2023/08/28 11:14:18;;;;;;;;;;;16.30;99.90;;;;;;21010644;28;19920;-74
2023/08/28 11:24:25;;;;;;;;;;;16.50;99.90;;;;;;21006792;28;20496;-74
2023/08/28 11:34:26;;;;;;;;;;;16.60;99.90;;;;;;20996544;28;20329;-74
2023/08/28 11:44:31;;;;;;;;;;;16.60;99.90;;;;;;20999729;28;19919;-74
2023/08/28 11:54:32;;;;;;;;;;;16.10;99.90;;;;;;21003116;28;19975;-75
2023/08/28 12:04:36;;;;;;;;;;;15.80;99.90;;;;;;21002242;28;19955;-74
2023/08/28 12:14:36;;;;;;;;;;;15.80;99.90;;;;;;21003329;28;19924;-74
2023/08/28 12:24:40;;;;;;;;;;;15.90;99.90;;;;;;21000278;28;19917;-73
2023/08/28 12:34:42;;;;;;;;;;;16.00;99.90;;;;;;20999886;28;19975;-73
2023/08/28 12:44:43;;;;;;;;;;;15.70;99.90;;;;;;20987247;28;19919;-75
2023/08/28 12:54:44;;;;;;;;;;;15.70;99.90;;;;;;21003626;28;19928;-74
2023/08/28 13:04:44;;;;;;;;;;;15.70;99.90;;;;;;21002683;28;20306;-74
2023/08/28 13:14:45;;;;;;;;;;;15.70;99.90;;;;;;20994592;28;19917;-75
2023/08/28 13:24:45;;;;;;;;;;;15.90;99.90;;;;;;20994762;28;19956;-75
2023/08/28 13:34:46;;;;;;;;;;;16.10;99.90;;;;;;20995450;28;19921;-74
2023/08/28 13:44:47;;;;;;;;;;;15.70;99.90;;;;;;20981583;28;19920;-74
2023/08/28 13:54:51;;;;;;;;;;;15.70;99.90;;;;;;20992484;28;20321;-74
2023/08/28 14:04:52;;;;;;;;;;;15.40;99.90;;;;;;20992250;28;19959;-74
2023/08/28 14:14:52;;;;;;;;;;;15.30;99.90;;;;;;20991256;28;20011;-74
2023/08/28 14:24:53;;;;;;;;;;;15.40;99.90;;;;;;20972758;28;19916;-74
2023/08/28 14:34:54;;;;;;;;;;;15.70;99.90;;;;;;20989514;28;19920;-74
2023/08/28 14:44:54;;;;;;;;;;;15.90;99.90;;;;;;20991342;28;19963;-74
2023/08/28 14:54:55;;;;;;;;;;;15.50;99.90;;;;;;20981232;28;19923;-74
2023/08/28 15:04:56;;;;;;;;;;;15.30;99.90;;;;;;20989197;28;19913;-74
2023/08/28 15:14:56;;;;;;;;;;;15.20;99.90;;;;;;20987700;28;19917;-74
2023/08/28 15:24:57;;;;;;;;;;;15.20;99.90;;;;;;20989174;28;19916;-74
2023/08/28 15:34:58;;;;;;;;;;;15.20;99.90;;;;;;20988796;28;19916;-74
2023/08/28 15:44:59;;;;;;;;;;;15.00;99.90;;;;;;20989981;28;19913;-75
2023/08/28 15:55:00;;;;;;;;;;;14.40;99.90;;;;;;21001603;28;20388;-74
2023/08/28 16:05:01;;;;;;;;;;;14.20;99.90;;;;;;21022340;28;19965;-74
2023/08/28 16:15:02;;;;;;;;;;;14.10;99.90;;;;;;20985786;28;19916;-74
2023/08/28 16:25:03;;;;;;;;;;;14.00;99.90;;;;;;20993668;28;19946;-73
2023/08/28 16:35:04;;;;;;;;;;;14.00;99.90;;;;;;20974595;28;20325;-73
2023/08/28 16:45:05;;;;;;;;;;;13.80;99.90;;;;;;20979948;28;19965;-73
2023/08/28 16:55:06;;;;;;;;;;;13.80;99.90;;;;;;20994255;28;19955;-74
2023/08/28 17:05:07;;;;;;;;;;;13.80;99.90;;;;;;21029017;28;19916;-73
2023/08/28 17:15:07;;;;;;;;;;;13.50;99.90;;;;;;20996641;28;19952;-74
2023/08/28 17:25:08;;;;;;;;;;;13.40;99.90;;;;;;21030676;28;19920;-77
2023/08/28 17:35:09;;;;;;;;;;;13.40;99.90;;;;;;20981232;28;19921;-76
2023/08/28 17:45:09;;;;;;;;;;;13.40;99.90;;;;;;20993365;28;19954;-75
2023/08/28 17:55:10;;;;;;;;;;;13.30;99.90;;;;;;20974458;28;19916;-76
2023/08/28 18:05:11;;;;;;;;;;;13.20;99.90;;;;;;20992150;28;19995;-76
2023/08/28 18:15:11;;;;;;;;;;;13.20;99.90;;;;;;20991809;28;19925;-75
2023/08/28 18:25:13;;;;;;;;;;;13.10;99.90;;;;;;20986476;28;19917;-76
2023/08/28 18:35:14;;;;;;;;;;;13.00;99.90;;;;;;20989498;28;20330;-77
2023/08/28 18:45:14;;;;;;;;;;;13.00;99.90;;;;;;21001840;28;19920;-78
2023/08/28 18:55:15;;;;;;;;;;;13.00;99.90;;;;;;20984420;28;19920;-76
2023/08/28 19:05:16;;;;;;;;;;;13.00;99.90;;;;;;20992947;28;19912;-78
2023/08/28 19:15:17;;;;;;;;;;;13.00;99.90;;;;;;20996809;28;19917;-78
2023/08/28 19:25:17;;;;;;;;;;;13.00;99.90;;;;;;21035744;28;19931;-78
2023/08/28 19:35:18;;;;;;;;;;;13.10;99.90;;;;;;21014535;28;19955;-77
2023/08/28 19:45:19;;;;;;;;;;;13.00;99.90;;;;;;21003005;28;19913;-75
2023/08/28 19:55:19;;;;;;;;;;;13.00;99.90;;;;;;21001902;28;20011;-76
2023/08/28 20:05:20;;;;;;;;;;;13.00;99.90;;;;;;21019810;28;19994;-77
2023/08/28 20:15:22;;;;;;;;;;;12.80;99.90;;;;;;21019156;28;19927;-78
2023/08/28 20:25:22;;;;;;;;;;;12.80;99.90;;;;;;21023220;28;19917;-77
2023/08/28 20:35:23;;;;;;;;;;;12.80;99.90;;;;;;21029674;28;19991;-77
2023/08/28 20:45:24;;;;;;;;;;;12.60;99.90;;;;;;21026881;28;19912;-77
2023/08/28 20:55:25;;;;;;;;;;;12.70;99.90;;;;;;21026372;28;19992;-78
2023/08/28 21:05:25;;;;;;;;;;;12.70;99.90;;;;;;21020850;28;19923;-79
2023/08/28 21:15:26;;;;;;;;;;;12.70;99.90;;;;;;21021825;28;19964;-78
2023/08/28 21:25:28;;;;;;;;;;;12.60;99.90;;;;;;21014851;28;19916;-76
2023/08/28 21:35:29;;;;;;;;;;;12.60;99.90;;;;;;21008541;28;19961;-77
2023/08/28 21:45:32;;;;;;;;;;;12.30;99.90;;;;;;21003343;28;19912;-77
2023/08/28 21:55:36;;;;;;;;;;;12.20;99.90;;;;;;21005312;28;19921;-77
2023/08/28 22:05:56;;;;;;;;;;;12.20;99.90;;;;;;21001402;28;19916;-77
2023/08/28 22:15:58;;;;;;;;;;;12.30;99.90;;;;;;20994357;28;19962;-77
2023/08/28 22:25:59;;;;;;;;;;;12.20;99.90;;;;;;21000879;28;19920;-76
2023/08/28 22:36:00;;;;;;;;;;;12.10;99.90;;;;;;20980171;28;20406;-77
2023/08/28 22:46:01;;;;;;;;;;;12.20;99.90;;;;;;21002392;28;19912;-77
2023/08/28 22:56:02;;;;;;;;;;;12.30;99.90;;;;;;20989934;28;19916;-77
2023/08/28 23:06:05;;;;;;;;;;;12.20;99.90;;;;;;21013541;28;19939;-75
2023/08/28 23:16:05;;;;;;;;;;;12.20;99.90;;;;;;21016879;28;19921;-77
2023/08/28 23:26:06;;;;;;;;;;;12.20;99.90;;;;;;21022292;28;19938;-77
2023/08/28 23:36:08;;;;;;;;;;;12.20;99.90;;;;;;21018534;28;19916;-77
2023/08/28 23:46:08;;;;;;;;;;;12.20;99.90;;;;;;21006853;28;20329;-77
2023/08/28 23:56:09;;;;;;;;;;;12.10;99.90;;;;;;21009675;28;19970;-77
